sensor_id;sensor_type;location;lat;lon;timestamp;pressure;altitude;pressure_sealevel;temperature;humidity
76311;BME280;65120;59.304;18.294;2023-03-01T00:01:26;102734.97;;;3.69;62.35
76311;BME280;65120;59.304;18.294;2023-03-01T00:03:54;102732.25;;;3.66;61.96
76311;BME280;65120;59.304;18.294;2023-03-01T00:06:22;102739.06;;;3.64;61.95
76311;BME280;65120;59.304;18.294;2023-03-01T00:08:49;102737.16;;;3.60;62.29
76311;BME280;65120;59.304;18.294;2023-03-01T00:11:18;102741.34;;;3.56;62.34
76311;BME280;65120;59.304;18.294;2023-03-01T00:13:47;102733.50;;;3.55;61.98
76311;BME280;65120;59.304;18.294;2023-03-01T00:16:16;102735.13;;;3.53;61.71
76311;BME280;65120;59.304;18.294;2023-03-01T00:18:45;102739.31;;;3.49;61.83
76311;BME280;65120;59.304;18.294;2023-03-01T00:21:13;102725.94;;;3.38;62.12
76311;BME280;65120;59.304;18.294;2023-03-01T00:23:40;102744.41;;;3.48;61.97
76311;BME280;65120;59.304;18.294;2023-03-01T00:26:08;102742.38;;;3.41;61.81
76311;BME280;65120;59.304;18.294;2023-03-01T00:28:35;102753.53;;;3.40;62.20
76311;BME280;65120;59.304;18.294;2023-03-01T00:31:03;102744.56;;;3.31;62.40
76311;BME280;65120;59.304;18.294;2023-03-01T00:33:30;102751.50;;;3.32;62.40
76311;BME280;65120;59.304;18.294;2023-03-01T00:35:59;102745.31;;;3.29;62.20
76311;BME280;65120;59.304;18.294;2023-03-01T00:38:26;102742.28;;;3.18;62.05
76311;BME280;65120;59.304;18.294;2023-03-01T00:40:53;102757.78;;;3.18;62.21
76311;BME280;65120;59.304;18.294;2023-03-01T00:43:21;102757.72;;;3.17;62.65
76311;BME280;65120;59.304;18.294;2023-03-01T00:45:48;102751.47;;;3.11;62.73
76311;BME280;65120;59.304;18.294;2023-03-01T00:48:14;102742.63;;;3.06;62.64
76311;BME280;65120;59.304;18.294;2023-03-01T00:50:41;102726.75;;;2.97;62.82
76311;BME280;65120;59.304;18.294;2023-03-01T00:53:10;102748.28;;;2.98;62.70
76311;BME280;65120;59.304;18.294;2023-03-01T00:55:37;102750.72;;;2.95;62.13
76311;BME280;65120;59.304;18.294;2023-03-01T00:58:04;102750.50;;;2.90;62.45
76311;BME280;65120;59.304;18.294;2023-03-01T01:00:30;102751.09;;;2.84;62.31
76311;BME280;65120;59.304;18.294;2023-03-01T01:02:57;102748.34;;;2.80;62.98
76311;BME280;65120;59.304;18.294;2023-03-01T01:05:24;102735.91;;;2.71;62.57
76311;BME280;65120;59.304;18.294;2023-03-01T01:07:51;102734.94;;;2.69;62.59
76311;BME280;65120;59.304;18.294;2023-03-01T01:10:20;102732.28;;;2.67;62.77
76311;BME280;65120;59.304;18.294;2023-03-01T01:12:47;102731.25;;;2.64;62.66
76311;BME280;65120;59.304;18.294;2023-03-01T01:15:14;102724.22;;;2.60;62.67
76311;BME280;65120;59.304;18.294;2023-03-01T01:17:42;102730.03;;;2.56;62.49
76311;BME280;65120;59.304;18.294;2023-03-01T01:20:10;102734.19;;;2.52;62.51
76311;BME280;65120;59.304;18.294;2023-03-01T01:22:37;102725.16;;;2.42;63.07
76311;BME280;65120;59.304;18.294;2023-03-01T01:25:05;102727.63;;;2.41;63.39
76311;BME280;65120;59.304;18.294;2023-03-01T01:27:33;102730.94;;;2.38;63.12
76311;BME280;65120;59.304;18.294;2023-03-01T01:30:00;102714.25;;;2.30;63.23
76311;BME280;65120;59.304;18.294;2023-03-01T01:32:27;102731.50;;;2.31;63.24
76311;BME280;65120;59.304;18.294;2023-03-01T01:34:54;102730.38;;;2.26;63.39
76311;BME280;65120;59.304;18.294;2023-03-01T01:37:21;102716.34;;;2.19;62.90
76311;BME280;65120;59.304;18.294;2023-03-01T01:39:48;102703.00;;;2.10;63.16
76311;BME280;65120;59.304;18.294;2023-03-01T01:42:16;102713.31;;;2.10;63.90
76311;BME280;65120;59.304;18.294;2023-03-01T01:44:47;102729.81;;;2.14;63.35
76311;BME280;65120;59.304;18.294;2023-03-01T01:47:17;102716.47;;;2.05;63.41
76311;BME280;65120;59.304;18.294;2023-03-01T01:49:48;102716.41;;;2.03;63.34
76311;BME280;65120;59.304;18.294;2023-03-01T01:52:18;102712.81;;;1.99;63.88
76311;BME280;65120;59.304;18.294;2023-03-01T01:54:50;102709.19;;;1.96;63.75
76311;BME280;65120;59.304;18.294;2023-03-01T01:57:22;102723.19;;;2.01;63.73
76311;BME280;65120;59.304;18.294;2023-03-01T01:59:53;102721.28;;;1.97;63.91
76311;BME280;65120;59.304;18.294;2023-03-01T02:02:21;102728.72;;;1.91;64.02
76311;BME280;65120;59.304;18.294;2023-03-01T02:04:49;102731.50;;;1.95;63.51
76311;BME280;65120;59.304;18.294;2023-03-01T02:07:22;102723.63;;;1.92;63.67
76311;BME280;65120;59.304;18.294;2023-03-01T02:09:50;102733.88;;;1.91;64.16
76311;BME280;65120;59.304;18.294;2023-03-01T02:12:20;102723.41;;;1.88;63.81
76311;BME280;65120;59.304;18.294;2023-03-01T02:14:48;102724.22;;;1.87;64.14
76311;BME280;65120;59.304;18.294;2023-03-01T02:17:17;102712.78;;;1.82;64.33
76311;BME280;65120;59.304;18.294;2023-03-01T02:19:57;102714.50;;;1.81;64.06
76311;BME280;65120;59.304;18.294;2023-03-01T02:22:28;102712.59;;;1.77;64.07
76311;BME280;65120;59.304;18.294;2023-03-01T02:25:04;102691.50;;;1.68;64.01
76311;BME280;65120;59.304;18.294;2023-03-01T02:27:41;102702.94;;;1.73;64.10
76311;BME280;65120;59.304;18.294;2023-03-01T02:30:13;102700.19;;;1.70;64.90
76311;BME280;65120;59.304;18.294;2023-03-01T02:32:41;102690.63;;;1.67;64.15
76311;BME280;65120;59.304;18.294;2023-03-01T02:35:11;102685.19;;;1.61;64.40
76311;BME280;65120;59.304;18.294;2023-03-01T02:37:40;102688.50;;;1.58;63.94
76311;BME280;65120;59.304;18.294;2023-03-01T02:40:09;102699.75;;;1.61;64.07
76311;BME280;65120;59.304;18.294;2023-03-01T02:42:45;102698.78;;;1.58;64.01
76311;BME280;65120;59.304;18.294;2023-03-01T02:45:16;102696.91;;;1.54;64.61
76311;BME280;65120;59.304;18.294;2023-03-01T02:47:43;102695.09;;;1.53;64.66
76311;BME280;65120;59.304;18.294;2023-03-01T02:50:19;102695.69;;;1.48;64.29
76311;BME280;65120;59.304;18.294;2023-03-01T02:52:56;102705.25;;;1.50;64.84
76311;BME280;65120;59.304;18.294;2023-03-01T02:55:28;102698.34;;;1.49;63.88
76311;BME280;65120;59.304;18.294;2023-03-01T02:57:55;102688.78;;;1.47;64.48
76311;BME280;65120;59.304;18.294;2023-03-01T03:00:27;102687.75;;;1.43;64.64
76311;BME280;65120;59.304;18.294;2023-03-01T03:02:55;102689.50;;;1.44;64.35
76311;BME280;65120;59.304;18.294;2023-03-01T03:05:24;102671.91;;;1.35;64.97
76311;BME280;65120;59.304;18.294;2023-03-01T03:07:52;102689.34;;;1.41;64.61
76311;BME280;65120;59.304;18.294;2023-03-01T03:10:21;102690.81;;;1.36;65.14
76311;BME280;65120;59.304;18.294;2023-03-01T03:12:52;102679.19;;;1.26;64.49
76311;BME280;65120;59.304;18.294;2023-03-01T03:15:21;102685.59;;;1.34;64.72
76311;BME280;65120;59.304;18.294;2023-03-01T03:17:50;102670.44;;;1.23;64.46
76311;BME280;65120;59.304;18.294;2023-03-01T03:20:19;102689.72;;;1.31;65.12
76311;BME280;65120;59.304;18.294;2023-03-01T03:22:47;102682.78;;;1.30;64.72
76311;BME280;65120;59.304;18.294;2023-03-01T03:25:14;102698.19;;;1.28;64.90
76311;BME280;65120;59.304;18.294;2023-03-01T03:27:43;102686.19;;;1.29;64.86
76311;BME280;65120;59.304;18.294;2023-03-01T03:30:13;102685.34;;;1.30;64.95
76311;BME280;65120;59.304;18.294;2023-03-01T03:32:41;102686.97;;;1.28;64.53
76311;BME280;65120;59.304;18.294;2023-03-01T03:35:10;102692.94;;;1.27;64.83
76311;BME280;65120;59.304;18.294;2023-03-01T03:37:37;102692.94;;;1.27;64.89
76311;BME280;65120;59.304;18.294;2023-03-01T03:40:21;102695.34;;;1.24;65.23
76311;BME280;65120;59.304;18.294;2023-03-01T03:42:48;102676.06;;;1.16;65.12
76311;BME280;65120;59.304;18.294;2023-03-01T03:45:15;102680.72;;;1.23;65.41
76311;BME280;65120;59.304;18.294;2023-03-01T03:47:43;102680.72;;;1.23;64.95
76311;BME280;65120;59.304;18.294;2023-03-01T03:50:13;102667.63;;;1.18;65.40
76311;BME280;65120;59.304;18.294;2023-03-01T03:52:40;102664.31;;;1.21;65.35
76311;BME280;65120;59.304;18.294;2023-03-01T03:55:09;102662.16;;;1.12;64.91
76311;BME280;65120;59.304;18.294;2023-03-01T03:57:36;102674.47;;;1.18;65.11
76311;BME280;65120;59.304;18.294;2023-03-01T04:00:04;102675.34;;;1.18;64.58
76311;BME280;65120;59.304;18.294;2023-03-01T04:02:38;102671.78;;;1.16;64.91
76311;BME280;65120;59.304;18.294;2023-03-01T04:05:06;102665.75;;;1.16;64.99
76311;BME280;65120;59.304;18.294;2023-03-01T04:07:35;102668.28;;;1.14;64.94
76311;BME280;65120;59.304;18.294;2023-03-01T04:10:02;102663.84;;;1.11;65.10
76311;BME280;65120;59.304;18.294;2023-03-01T04:12:29;102656.13;;;1.11;65.83
76311;BME280;65120;59.304;18.294;2023-03-01T04:14:56;102647.06;;;1.02;65.36
76311;BME280;65120;59.304;18.294;2023-03-01T04:17:23;102664.50;;;1.07;65.05
76311;BME280;65120;59.304;18.294;2023-03-01T04:19:50;102666.19;;;1.07;64.53
76311;BME280;65120;59.304;18.294;2023-03-01T04:22:17;102663.56;;;1.05;65.59
76311;BME280;65120;59.304;18.294;2023-03-01T04:24:45;102666.03;;;1.04;65.27
76311;BME280;65120;59.304;18.294;2023-03-01T04:27:12;102663.38;;;1.02;65.16
76311;BME280;65120;59.304;18.294;2023-03-01T04:29:39;102665.00;;;1.00;65.21
76311;BME280;65120;59.304;18.294;2023-03-01T04:32:06;102658.78;;;0.97;65.37
76311;BME280;65120;59.304;18.294;2023-03-01T04:34:33;102675.16;;;0.97;65.12
76311;BME280;65120;59.304;18.294;2023-03-01T04:37:00;102681.94;;;0.97;65.55
76311;BME280;65120;59.304;18.294;2023-03-01T04:39:27;102675.88;;;0.95;65.71
76311;BME280;65120;59.304;18.294;2023-03-01T04:41:56;102667.75;;;0.87;65.44
76311;BME280;65120;59.304;18.294;2023-03-01T04:44:22;102673.91;;;0.90;65.51
76311;BME280;65120;59.304;18.294;2023-03-01T04:46:49;102672.88;;;0.87;65.07
76311;BME280;65120;59.304;18.294;2023-03-01T04:49:16;102671.13;;;0.86;65.15
76311;BME280;65120;59.304;18.294;2023-03-01T04:51:43;102671.03;;;0.84;65.26
76311;BME280;65120;59.304;18.294;2023-03-01T04:54:10;102667.59;;;0.84;65.75
76311;BME280;65120;59.304;18.294;2023-03-01T04:56:37;102669.19;;;0.82;65.31
76311;BME280;65120;59.304;18.294;2023-03-01T04:59:05;102657.78;;;0.77;65.54
76311;BME280;65120;59.304;18.294;2023-03-01T05:01:33;102658.75;;;0.79;65.64
76311;BME280;65120;59.304;18.294;2023-03-01T05:04:01;102665.59;;;0.78;65.65
76311;BME280;65120;59.304;18.294;2023-03-01T05:06:31;102664.69;;;0.78;65.39
76311;BME280;65120;59.304;18.294;2023-03-01T05:08:58;102666.31;;;0.76;65.91
76311;BME280;65120;59.304;18.294;2023-03-01T05:11:27;102663.66;;;0.74;65.82
76311;BME280;65120;59.304;18.294;2023-03-01T05:13:58;102661.81;;;0.72;66.05
76311;BME280;65120;59.304;18.294;2023-03-01T05:16:27;102661.81;;;0.72;65.25
76311;BME280;65120;59.304;18.294;2023-03-01T05:18:56;102663.41;;;0.70;66.08
76311;BME280;65120;59.304;18.294;2023-03-01T05:21:23;102661.66;;;0.69;65.49
76311;BME280;65120;59.304;18.294;2023-03-01T05:23:50;102658.28;;;0.70;65.50
76311;BME280;65120;59.304;18.294;2023-03-01T05:26:18;102652.16;;;0.67;65.59
76311;BME280;65120;59.304;18.294;2023-03-01T05:28:47;102652.09;;;0.66;66.17
76311;BME280;65120;59.304;18.294;2023-03-01T05:31:14;102647.66;;;0.63;65.64
76311;BME280;65120;59.304;18.294;2023-03-01T05:33:43;102661.50;;;0.65;65.54
76311;BME280;65120;59.304;18.294;2023-03-01T05:36:10;102659.66;;;0.63;65.59
76311;BME280;65120;59.304;18.294;2023-03-01T05:38:37;102663.88;;;0.62;65.86
76311;BME280;65120;59.304;18.294;2023-03-01T05:41:14;102653.53;;;0.61;66.21
76311;BME280;65120;59.304;18.294;2023-03-01T05:43:42;102656.00;;;0.59;65.44
76311;BME280;65120;59.304;18.294;2023-03-01T05:46:10;102661.97;;;0.58;66.10
76311;BME280;65120;59.304;18.294;2023-03-01T05:48:38;102658.38;;;0.55;65.47
76311;BME280;65120;59.304;18.294;2023-03-01T05:51:06;102658.44;;;0.56;66.26
76311;BME280;65120;59.304;18.294;2023-03-01T05:53:33;102660.13;;;0.56;65.93
76311;BME280;65120;59.304;18.294;2023-03-01T05:56:03;102652.97;;;0.50;66.09
76311;BME280;65120;59.304;18.294;2023-03-01T05:58:30;102663.50;;;0.55;66.56
76311;BME280;65120;59.304;18.294;2023-03-01T06:00:56;102653.78;;;0.49;66.38
76311;BME280;65120;59.304;18.294;2023-03-01T06:03:23;102662.53;;;0.53;66.14
76311;BME280;65120;59.304;18.294;2023-03-01T06:05:55;102659.97;;;0.53;66.53
76311;BME280;65120;59.304;18.294;2023-03-01T06:08:23;102661.56;;;0.51;66.66
76311;BME280;65120;59.304;18.294;2023-03-01T06:10:52;102651.13;;;0.48;66.60
76311;BME280;65120;59.304;18.294;2023-03-01T06:13:19;102671.06;;;0.52;66.75
76311;BME280;65120;59.304;18.294;2023-03-01T06:15:46;102650.94;;;0.44;66.07
76311;BME280;65120;59.304;18.294;2023-03-01T06:18:13;102658.03;;;0.49;66.09
76311;BME280;65120;59.304;18.294;2023-03-01T06:20:41;102646.84;;;0.48;66.49
76311;BME280;65120;59.304;18.294;2023-03-01T06:23:08;102649.41;;;0.48;65.88
76311;BME280;65120;59.304;18.294;2023-03-01T06:25:37;102652.00;;;0.48;66.82
76311;BME280;65120;59.304;18.294;2023-03-01T06:28:04;102644.94;;;0.44;66.36
76311;BME280;65120;59.304;18.294;2023-03-01T06:30:30;102655.38;;;0.47;66.17
76311;BME280;65120;59.304;18.294;2023-03-01T06:32:57;102664.78;;;0.47;66.38
76311;BME280;65120;59.304;18.294;2023-03-01T06:35:26;102657.84;;;0.45;66.24
76311;BME280;65120;59.304;18.294;2023-03-01T06:37:55;102638.59;;;0.37;66.22
76311;BME280;65120;59.304;18.294;2023-03-01T06:40:22;102644.94;;;0.44;66.79
76311;BME280;65120;59.304;18.294;2023-03-01T06:42:51;102654.50;;;0.47;66.46
76311;BME280;65120;59.304;18.294;2023-03-01T06:45:19;102657.06;;;0.47;66.53
76311;BME280;65120;59.304;18.294;2023-03-01T06:47:46;102657.13;;;0.48;66.54
76311;BME280;65120;59.304;18.294;2023-03-01T06:50:17;102664.06;;;0.49;66.76
76311;BME280;65120;59.304;18.294;2023-03-01T06:52:45;102658.91;;;0.49;67.24
76311;BME280;65120;59.304;18.294;2023-03-01T06:55:12;102658.09;;;0.50;66.61
76311;BME280;65120;59.304;18.294;2023-03-01T06:57:39;102662.63;;;0.54;67.27
76311;BME280;65120;59.304;18.294;2023-03-01T07:00:11;102667.00;;;0.57;66.37
76311;BME280;65120;59.304;18.294;2023-03-01T07:02:38;102668.00;;;0.59;67.53
76311;BME280;65120;59.304;18.294;2023-03-01T07:05:06;102654.25;;;0.58;66.47
76311;BME280;65120;59.304;18.294;2023-03-01T07:07:33;102653.28;;;0.56;66.78
76311;BME280;65120;59.304;18.294;2023-03-01T07:10:03;102661.31;;;0.62;66.78
76311;BME280;65120;59.304;18.294;2023-03-01T07:12:32;102667.59;;;0.67;66.93
76311;BME280;65120;59.304;18.294;2023-03-01T07:15:02;102660.03;;;0.71;66.99
76311;BME280;65120;59.304;18.294;2023-03-01T07:17:31;102670.47;;;0.74;67.18
76311;BME280;65120;59.304;18.294;2023-03-01T07:19:57;102661.97;;;0.75;66.88
76311;BME280;65120;59.304;18.294;2023-03-01T07:22:24;102669.03;;;0.79;66.85
76311;BME280;65120;59.304;18.294;2023-03-01T07:24:51;102664.91;;;0.82;67.61
76311;BME280;65120;59.304;18.294;2023-03-01T07:27:18;102669.44;;;0.86;66.96
76311;BME280;65120;59.304;18.294;2023-03-01T07:29:45;102663.56;;;0.89;66.66
76311;BME280;65120;59.304;18.294;2023-03-01T07:32:12;102657.59;;;0.90;67.69
76311;BME280;65120;59.304;18.294;2023-03-01T07:34:40;102648.91;;;0.88;66.82
76311;BME280;65120;59.304;18.294;2023-03-01T07:37:07;102665.00;;;1.00;67.38
76311;BME280;65120;59.304;18.294;2023-03-01T07:39:34;102655.75;;;1.04;66.70
76311;BME280;65120;59.304;18.294;2023-03-01T07:42:01;102651.63;;;1.07;66.50
76311;BME280;65120;59.304;18.294;2023-03-01T07:44:28;102652.66;;;1.11;67.45
76311;BME280;65120;59.304;18.294;2023-03-01T07:46:55;102651.44;;;1.21;67.08
76311;BME280;65120;59.304;18.294;2023-03-01T07:49:23;102650.00;;;1.26;66.83
76311;BME280;65120;59.304;18.294;2023-03-01T07:51:53;102645.13;;;1.32;66.77
76311;BME280;65120;59.304;18.294;2023-03-01T07:54:20;102644.63;;;1.39;67.14
76311;BME280;65120;59.304;18.294;2023-03-01T07:56:47;102653.53;;;1.46;66.85
76311;BME280;65120;59.304;18.294;2023-03-01T07:59:14;102627.56;;;1.41;66.87
76311;BME280;65120;59.304;18.294;2023-03-01T08:01:40;102642.84;;;1.56;67.03
76311;BME280;65120;59.304;18.294;2023-03-01T08:04:08;102653.63;;;1.65;67.52
76311;BME280;65120;59.304;18.294;2023-03-01T08:06:35;102644.34;;;1.69;66.67
76311;BME280;65120;59.304;18.294;2023-03-01T08:09:04;102641.25;;;1.76;66.50
76311;BME280;65120;59.304;18.294;2023-03-01T08:11:31;102633.88;;;1.84;66.60
76311;BME280;65120;59.304;18.294;2023-03-01T08:13:58;102632.41;;;1.89;67.16
76311;BME280;65120;59.304;18.294;2023-03-01T08:16:25;102626.56;;;1.93;66.62
76311;BME280;65120;59.304;18.294;2023-03-01T08:18:51;102634.94;;;2.07;66.75
76311;BME280;65120;59.304;18.294;2023-03-01T08:21:21;102642.16;;;2.14;66.86
76311;BME280;65120;59.304;18.294;2023-03-01T08:23:48;102626.69;;;2.14;66.33
76311;BME280;65120;59.304;18.294;2023-03-01T08:26:17;102638.53;;;2.28;66.85
76311;BME280;65120;59.304;18.294;2023-03-01T08:28:45;102609.66;;;2.17;66.69
76311;BME280;65120;59.304;18.294;2023-03-01T08:31:16;102652.91;;;2.42;66.06
76311;BME280;65120;59.304;18.294;2023-03-01T08:33:44;102638.47;;;2.46;66.12
76311;BME280;65120;59.304;18.294;2023-03-01T08:36:16;102650.00;;;2.54;65.86
76311;BME280;65120;59.304;18.294;2023-03-01T08:38:43;102652.84;;;2.60;65.72
76311;BME280;65120;59.304;18.294;2023-03-01T08:41:11;102645.31;;;2.65;66.14
76311;BME280;65120;59.304;18.294;2023-03-01T08:43:42;102637.84;;;2.71;65.93
76311;BME280;65120;59.304;18.294;2023-03-01T08:46:09;102605.53;;;2.60;66.35
76311;BME280;65120;59.304;18.294;2023-03-01T08:48:36;102637.53;;;2.84;65.62
76311;BME280;65120;59.304;18.294;2023-03-01T08:51:12;102640.41;;;2.90;65.94
76311;BME280;65120;59.304;18.294;2023-03-01T08:53:40;102638.09;;;2.97;65.78
76311;BME280;65120;59.304;18.294;2023-03-01T08:56:08;102625.22;;;2.98;65.12
76311;BME280;65120;59.304;18.294;2023-03-01T08:58:35;102632.56;;;3.08;65.43
76311;BME280;65120;59.304;18.294;2023-03-01T09:01:08;102626.78;;;3.14;65.08
76311;BME280;65120;59.304;18.294;2023-03-01T09:03:36;102624.34;;;3.19;65.45
76311;BME280;65120;59.304;18.294;2023-03-01T09:06:04;102621.97;;;3.23;65.16
76311;BME280;65120;59.304;18.294;2023-03-01T09:08:34;102622.22;;;3.29;65.32
76311;BME280;65120;59.304;18.294;2023-03-01T09:11:01;102612.84;;;3.31;64.60
76311;BME280;65120;59.304;18.294;2023-03-01T09:13:29;102615.66;;;3.37;64.78
76311;BME280;65120;59.304;18.294;2023-03-01T09:15:56;102604.50;;;3.38;65.00
76311;BME280;65120;59.304;18.294;2023-03-01T09:18:25;102596.84;;;3.40;64.79
76311;BME280;65120;59.304;18.294;2023-03-01T09:20:51;102610.13;;;3.49;64.45
76311;BME280;65120;59.304;18.294;2023-03-01T09:23:20;102608.47;;;3.51;64.54
76311;BME280;65120;59.304;18.294;2023-03-01T09:25:47;102599.16;;;3.55;64.35
76311;BME280;65120;59.304;18.294;2023-03-01T09:28:14;102599.25;;;3.58;64.62
76311;BME280;65120;59.304;18.294;2023-03-01T09:30:41;102600.28;;;3.62;64.68
76311;BME280;65120;59.304;18.294;2023-03-01T09:33:08;102589.16;;;3.64;64.48
76311;BME280;65120;59.304;18.294;2023-03-01T09:35:41;102593.69;;;3.70;64.06
76311;BME280;65120;59.304;18.294;2023-03-01T09:38:12;102598.94;;;3.71;64.44
76311;BME280;65120;59.304;18.294;2023-03-01T09:40:43;102593.13;;;3.77;64.00
76311;BME280;65120;59.304;18.294;2023-03-01T09:43:18;102586.34;;;3.80;64.13
76311;BME280;65120;59.304;18.294;2023-03-01T09:45:49;102584.72;;;3.82;64.12
76311;BME280;65120;59.304;18.294;2023-03-01T09:48:21;102577.16;;;3.87;64.21
76311;BME280;65120;59.304;18.294;2023-03-01T09:50:50;102564.50;;;3.95;64.04
76311;BME280;65120;59.304;18.294;2023-03-01T09:53:19;102570.94;;;4.06;63.89
76311;BME280;65120;59.304;18.294;2023-03-01T09:55:51;102560.34;;;4.22;63.74
76311;BME280;65120;59.304;18.294;2023-03-01T09:58:45;102556.53;;;4.37;63.40
76311;BME280;65120;59.304;18.294;2023-03-01T10:01:27;102557.59;;;4.42;63.27
76311;BME280;65120;59.304;18.294;2023-03-01T10:04:26;102553.78;;;4.56;63.16
76311;BME280;65120;59.304;18.294;2023-03-01T10:07:12;102561.97;;;4.68;63.09
76311;BME280;65120;59.304;18.294;2023-03-01T10:09:45;102548.34;;;4.74;62.50
76311;BME280;65120;59.304;18.294;2023-03-01T10:12:15;102551.91;;;4.78;62.80
76311;BME280;65120;59.304;18.294;2023-03-01T10:14:50;102544.97;;;4.77;62.67
76311;BME280;65120;59.304;18.294;2023-03-01T10:17:26;102546.78;;;4.79;62.41
76311;BME280;65120;59.304;18.294;2023-03-01T10:19:55;102552.06;;;4.82;62.45
76311;BME280;65120;59.304;18.294;2023-03-01T10:22:28;102544.41;;;4.85;62.36
76311;BME280;65120;59.304;18.294;2023-03-01T10:24:58;102540.97;;;4.86;62.41
76311;BME280;65120;59.304;18.294;2023-03-01T10:27:31;102528.88;;;4.85;62.51
76311;BME280;65120;59.304;18.294;2023-03-01T10:30:07;102537.72;;;4.92;62.44
76311;BME280;65120;59.304;18.294;2023-03-01T10:32:38;102496.47;;;4.71;62.38
76311;BME280;65120;59.304;18.294;2023-03-01T10:35:16;102531.81;;;4.96;62.12
76311;BME280;65120;59.304;18.294;2023-03-01T10:37:59;102528.38;;;4.97;61.97
76311;BME280;65120;59.304;18.294;2023-03-01T10:40:29;102537.88;;;4.96;62.13
76311;BME280;65120;59.304;18.294;2023-03-01T10:42:58;102539.72;;;5.01;61.91
76311;BME280;65120;59.304;18.294;2023-03-01T10:45:34;102539.78;;;5.02;61.88
76311;BME280;65120;59.304;18.294;2023-03-01T10:48:11;102530.38;;;5.04;61.94
76311;BME280;65120;59.304;18.294;2023-03-01T10:50:40;102521.47;;;4.96;61.60
76311;BME280;65120;59.304;18.294;2023-03-01T10:53:24;102527.81;;;5.06;61.56
76311;BME280;65120;59.304;18.294;2023-03-01T10:56:00;102525.28;;;5.07;61.81
76311;BME280;65120;59.304;18.294;2023-03-01T10:58:28;102521.84;;;5.08;61.47
76311;BME280;65120;59.304;18.294;2023-03-01T11:00:58;102515.03;;;5.10;61.27
76311;BME280;65120;59.304;18.294;2023-03-01T11:03:28;102512.44;;;5.10;61.14
76311;BME280;65120;59.304;18.294;2023-03-01T11:06:02;102514.28;;;5.14;61.36
76311;BME280;65120;59.304;18.294;2023-03-01T11:08:39;102514.44;;;5.19;60.93
76311;BME280;65120;59.304;18.294;2023-03-01T11:11:22;102508.47;;;5.22;61.01
76311;BME280;65120;59.304;18.294;2023-03-01T11:13:55;102516.28;;;5.23;61.18
76311;BME280;65120;59.304;18.294;2023-03-01T11:16:26;102508.56;;;5.25;60.93
76311;BME280;65120;59.304;18.294;2023-03-01T11:18:58;102503.38;;;5.25;60.99
76311;BME280;65120;59.304;18.294;2023-03-01T11:21:27;102510.31;;;5.26;60.66
76311;BME280;65120;59.304;18.294;2023-03-01T11:23:57;102513.00;;;5.29;60.42
76311;BME280;65120;59.304;18.294;2023-03-01T11:26:27;102525.13;;;5.30;60.70
76311;BME280;65120;59.304;18.294;2023-03-01T11:29:01;102506.06;;;5.28;60.79
76311;BME280;65120;59.304;18.294;2023-03-01T11:31:31;102512.28;;;5.33;60.70
76311;BME280;65120;59.304;18.294;2023-03-01T11:34:05;102514.03;;;5.34;60.47
76311;BME280;65120;59.304;18.294;2023-03-01T11:36:36;102504.59;;;5.36;60.49
76311;BME280;65120;59.304;18.294;2023-03-01T11:39:20;102503.75;;;5.37;60.64
76311;BME280;65120;59.304;18.294;2023-03-01T11:41:57;102494.22;;;5.36;60.62
76311;BME280;65120;59.304;18.294;2023-03-01T11:44:28;102493.47;;;5.40;60.62
76311;BME280;65120;59.304;18.294;2023-03-01T11:47:23;102497.84;;;5.41;60.54
76311;BME280;65120;59.304;18.294;2023-03-01T11:50:01;102482.00;;;5.32;60.31
76311;BME280;65120;59.304;18.294;2023-03-01T11:52:35;102494.41;;;5.42;60.36
76311;BME280;65120;59.304;18.294;2023-03-01T11:55:18;102498.75;;;5.43;60.23
76311;BME280;65120;59.304;18.294;2023-03-01T11:58:04;102487.56;;;5.44;60.36
76311;BME280;65120;59.304;18.294;2023-03-01T12:01:01;102480.66;;;5.45;60.28
76311;BME280;65120;59.304;18.294;2023-03-01T12:03:43;102475.31;;;5.40;60.31
76311;BME280;65120;59.304;18.294;2023-03-01T12:06:35;102486.81;;;5.48;60.34
76311;BME280;65120;59.304;18.294;2023-03-01T12:09:24;102486.91;;;5.51;60.41
76311;BME280;65120;59.304;18.294;2023-03-01T12:12:05;102483.50;;;5.52;59.91
76311;BME280;65120;59.304;18.294;2023-03-01T12:14:51;102476.59;;;5.53;60.07
76311;BME280;65120;59.304;18.294;2023-03-01T12:17:28;102471.44;;;5.54;60.38
76311;BME280;65120;59.304;18.294;2023-03-01T12:20:05;102468.84;;;5.54;60.01
76311;BME280;65120;59.304;18.294;2023-03-01T12:22:48;102443.69;;;5.50;59.92
76311;BME280;65120;59.304;18.294;2023-03-01T12:25:26;102455.19;;;5.60;60.06
76311;BME280;65120;59.304;18.294;2023-03-01T12:34:04;102447.53;;;5.64;59.90
76311;BME280;65120;59.304;18.294;2023-03-01T12:36:50;102452.72;;;5.64;59.77
76311;BME280;65120;59.304;18.294;2023-03-01T12:39:36;102447.56;;;5.66;59.83
76311;BME280;65120;59.304;18.294;2023-03-01T12:42:13;102436.16;;;5.59;59.64
76311;BME280;65120;59.304;18.294;2023-03-01T12:44:59;102435.28;;;5.59;59.61
76311;BME280;65120;59.304;18.294;2023-03-01T12:47:45;102444.19;;;5.69;59.54
76311;BME280;65120;59.304;18.294;2023-03-01T12:50:20;102447.66;;;5.69;59.53
76311;BME280;65120;59.304;18.294;2023-03-01T12:52:51;102445.13;;;5.71;59.46
76311;BME280;65120;59.304;18.294;2023-03-01T12:55:26;102427.84;;;5.71;59.58
76311;BME280;65120;59.304;18.294;2023-03-01T12:58:01;102428.72;;;5.72;59.39
76311;BME280;65120;59.304;18.294;2023-03-01T13:00:32;102421.72;;;5.69;59.31
76311;BME280;65120;59.304;18.294;2023-03-01T13:03:13;102417.56;;;5.74;59.12
76311;BME280;65120;59.304;18.294;2023-03-01T13:05:48;102417.63;;;5.77;59.03
76311;BME280;65120;59.304;18.294;2023-03-01T13:08:21;102419.41;;;5.78;59.16
76311;BME280;65120;59.304;18.294;2023-03-01T13:10:56;102426.41;;;5.81;59.04
76311;BME280;65120;59.304;18.294;2023-03-01T13:13:27;102420.38;;;5.82;59.05